sensor_id;sensor_type;location;lat;lon;timestamp;P1;durP1;ratioP1;P2;durP2;ratioP2
33491;SDS011;20010;51.488;7.232;2024-01-30T00:00:36;11.90;;;10.07;;
33491;SDS011;20010;51.488;7.232;2024-01-30T00:03:03;11.68;;;9.70;;
33491;SDS011;20010;51.488;7.232;2024-01-30T00:05:30;13.23;;;10.05;;
33491;SDS011;20010;51.488;7.232;2024-01-30T00:07:57;10.25;;;9.35;;
33491;SDS011;20010;51.488;7.232;2024-01-30T00:10:26;12.70;;;11.40;;
33491;SDS011;20010;51.488;7.232;2024-01-30T00:12:53;10.15;;;9.20;;
33491;SDS011;20010;51.488;7.232;2024-01-30T00:15:20;15.98;;;10.43;;
33491;SDS011;20010;51.488;7.232;2024-01-30T00:17:47;11.30;;;10.10;;
33491;SDS011;20010;51.488;7.232;2024-01-30T00:20:14;11.63;;;10.43;;
33491;SDS011;20010;51.488;7.232;2024-01-30T00:22:41;11.40;;;10.32;;
33491;SDS011;20010;51.488;7.232;2024-01-30T00:25:08;13.38;;;11.70;;
33491;SDS011;20010;51.488;7.232;2024-01-30T00:27:35;13.82;;;11.00;;
33491;SDS011;20010;51.488;7.232;2024-01-30T00:30:02;12.43;;;11.15;;
33491;SDS011;20010;51.488;7.232;2024-01-30T00:32:29;11.75;;;10.75;;
33491;SDS011;20010;51.488;7.232;2024-01-30T00:34:55;11.88;;;10.77;;
33491;SDS011;20010;51.488;7.232;2024-01-30T00:37:23;11.32;;;10.23;;
33491;SDS011;20010;51.488;7.232;2024-01-30T00:39:51;13.27;;;11.35;;
33491;SDS011;20010;51.488;7.232;2024-01-30T00:42:18;13.93;;;11.80;;
33491;SDS011;20010;51.488;7.232;2024-01-30T00:44:45;12.43;;;11.23;;
33491;SDS011;20010;51.488;7.232;2024-01-30T00:47:12;11.45;;;10.25;;
33491;SDS011;20010;51.488;7.232;2024-01-30T00:49:39;13.65;;;11.20;;
33491;SDS011;20010;51.488;7.232;2024-01-30T00:52:07;13.15;;;11.52;;
33491;SDS011;20010;51.488;7.232;2024-01-30T00:54:34;12.35;;;11.02;;
33491;SDS011;20010;51.488;7.232;2024-01-30T00:57:02;12.52;;;11.07;;
33491;SDS011;20010;51.488;7.232;2024-01-30T00:59:29;14.02;;;10.45;;
33491;SDS011;20010;51.488;7.232;2024-01-30T01:01:56;12.68;;;11.05;;
33491;SDS011;20010;51.488;7.232;2024-01-30T01:04:23;12.15;;;10.77;;
33491;SDS011;20010;51.488;7.232;2024-01-30T01:06:50;14.80;;;11.68;;
33491;SDS011;20010;51.488;7.232;2024-01-30T01:09:17;18.00;;;12.10;;
33491;SDS011;20010;51.488;7.232;2024-01-30T01:11:43;17.77;;;12.90;;
33491;SDS011;20010;51.488;7.232;2024-01-30T01:14:10;16.73;;;10.73;;
33491;SDS011;20010;51.488;7.232;2024-01-30T01:16:37;14.60;;;11.98;;
33491;SDS011;20010;51.488;7.232;2024-01-30T01:19:05;13.75;;;10.85;;
33491;SDS011;20010;51.488;7.232;2024-01-30T01:21:32;13.35;;;11.63;;
33491;SDS011;20010;51.488;7.232;2024-01-30T01:24:00;12.30;;;11.07;;
33491;SDS011;20010;51.488;7.232;2024-01-30T01:26:27;13.70;;;12.30;;
33491;SDS011;20010;51.488;7.232;2024-01-30T01:28:54;15.05;;;11.80;;
33491;SDS011;20010;51.488;7.232;2024-01-30T01:31:22;16.75;;;12.23;;
33491;SDS011;20010;51.488;7.232;2024-01-30T01:33:51;11.25;;;10.15;;
33491;SDS011;20010;51.488;7.232;2024-01-30T01:36:18;13.10;;;11.80;;
33491;SDS011;20010;51.488;7.232;2024-01-30T01:38:44;12.52;;;11.32;;
33491;SDS011;20010;51.488;7.232;2024-01-30T01:41:11;14.73;;;11.77;;
33491;SDS011;20010;51.488;7.232;2024-01-30T01:43:38;12.75;;;11.07;;
33491;SDS011;20010;51.488;7.232;2024-01-30T01:46:06;12.15;;;10.95;;
33491;SDS011;20010;51.488;7.232;2024-01-30T01:48:33;13.55;;;12.02;;
33491;SDS011;20010;51.488;7.232;2024-01-30T01:51:00;16.55;;;12.25;;
33491;SDS011;20010;51.488;7.232;2024-01-30T01:53:29;12.88;;;11.55;;
33491;SDS011;20010;51.488;7.232;2024-01-30T01:55:56;13.88;;;11.20;;
33491;SDS011;20010;51.488;7.232;2024-01-30T01:58:23;14.02;;;12.40;;
33491;SDS011;20010;51.488;7.232;2024-01-30T02:00:56;13.73;;;12.15;;
33491;SDS011;20010;51.488;7.232;2024-01-30T02:03:23;17.43;;;11.50;;
33491;SDS011;20010;51.488;7.232;2024-01-30T02:05:50;14.13;;;12.55;;
33491;SDS011;20010;51.488;7.232;2024-01-30T02:08:17;12.55;;;11.35;;
33491;SDS011;20010;51.488;7.232;2024-01-30T02:10:44;13.40;;;11.60;;
33491;SDS011;20010;51.488;7.232;2024-01-30T02:13:11;15.02;;;12.35;;
33491;SDS011;20010;51.488;7.232;2024-01-30T02:15:38;13.50;;;11.77;;
33491;SDS011;20010;51.488;7.232;2024-01-30T02:18:05;13.82;;;12.15;;
33491;SDS011;20010;51.488;7.232;2024-01-30T02:20:34;12.98;;;11.38;;
33491;SDS011;20010;51.488;7.232;2024-01-30T02:23:01;13.45;;;12.13;;
33491;SDS011;20010;51.488;7.232;2024-01-30T02:25:33;13.60;;;11.70;;
33491;SDS011;20010;51.488;7.232;2024-01-30T02:28:00;17.73;;;11.57;;
33491;SDS011;20010;51.488;7.232;2024-01-30T02:30:26;12.77;;;11.15;;
33491;SDS011;20010;51.488;7.232;2024-01-30T02:32:53;13.68;;;12.38;;
33491;SDS011;20010;51.488;7.232;2024-01-30T02:35:20;13.73;;;12.43;;
33491;SDS011;20010;51.488;7.232;2024-01-30T02:37:47;13.05;;;11.75;;
33491;SDS011;20010;51.488;7.232;2024-01-30T02:40:14;12.90;;;11.13;;
33491;SDS011;20010;51.488;7.232;2024-01-30T02:42:41;13.73;;;11.82;;
33491;SDS011;20010;51.488;7.232;2024-01-30T02:45:08;13.10;;;11.10;;
33491;SDS011;20010;51.488;7.232;2024-01-30T02:47:36;13.10;;;11.10;;
33491;SDS011;20010;51.488;7.232;2024-01-30T02:50:03;13.55;;;12.05;;
33491;SDS011;20010;51.488;7.232;2024-01-30T02:52:30;13.40;;;11.52;;
33491;SDS011;20010;51.488;7.232;2024-01-30T02:54:57;16.65;;;12.02;;
33491;SDS011;20010;51.488;7.232;2024-01-30T02:57:24;14.50;;;11.70;;
33491;SDS011;20010;51.488;7.232;2024-01-30T02:59:51;13.35;;;11.45;;
33491;SDS011;20010;51.488;7.232;2024-01-30T03:02:18;12.93;;;11.77;;
33491;SDS011;20010;51.488;7.232;2024-01-30T03:04:45;13.48;;;11.10;;
33491;SDS011;20010;51.488;7.232;2024-01-30T03:07:12;11.13;;;10.02;;
33491;SDS011;20010;51.488;7.232;2024-01-30T03:09:39;12.32;;;11.13;;
33491;SDS011;20010;51.488;7.232;2024-01-30T03:12:08;15.20;;;10.85;;
33491;SDS011;20010;51.488;7.232;2024-01-30T03:14:36;12.73;;;10.77;;
33491;SDS011;20010;51.488;7.232;2024-01-30T03:17:03;13.52;;;11.00;;
33491;SDS011;20010;51.488;7.232;2024-01-30T03:19:30;11.13;;;9.98;;
33491;SDS011;20010;51.488;7.232;2024-01-30T03:21:58;12.85;;;11.55;;
33491;SDS011;20010;51.488;7.232;2024-01-30T03:24:25;12.38;;;11.07;;
33491;SDS011;20010;51.488;7.232;2024-01-30T03:26:52;11.85;;;10.48;;
33491;SDS011;20010;51.488;7.232;2024-01-30T03:29:20;11.90;;;10.70;;
33491;SDS011;20010;51.488;7.232;2024-01-30T03:31:46;11.23;;;10.23;;
33491;SDS011;20010;51.488;7.232;2024-01-30T03:34:13;12.63;;;11.45;;
33491;SDS011;20010;51.488;7.232;2024-01-30T03:36:41;12.02;;;10.93;;
33491;SDS011;20010;51.488;7.232;2024-01-30T03:39:07;11.18;;;10.05;;
33491;SDS011;20010;51.488;7.232;2024-01-30T03:41:34;11.75;;;10.43;;
33491;SDS011;20010;51.488;7.232;2024-01-30T03:44:02;11.85;;;10.65;;
33491;SDS011;20010;51.488;7.232;2024-01-30T03:46:29;12.02;;;9.93;;
33491;SDS011;20010;51.488;7.232;2024-01-30T03:48:56;11.65;;;10.23;;
33491;SDS011;20010;51.488;7.232;2024-01-30T03:51:23;12.02;;;10.73;;
33491;SDS011;20010;51.488;7.232;2024-01-30T03:53:50;11.77;;;10.32;;
33491;SDS011;20010;51.488;7.232;2024-01-30T03:56:18;11.95;;;10.18;;
33491;SDS011;20010;51.488;7.232;2024-01-30T03:58:44;10.57;;;9.50;;
33491;SDS011;20010;51.488;7.232;2024-01-30T04:01:14;12.48;;;10.38;;
33491;SDS011;20010;51.488;7.232;2024-01-30T04:03:41;11.70;;;10.50;;
33491;SDS011;20010;51.488;7.232;2024-01-30T04:06:10;13.00;;;11.15;;
33491;SDS011;20010;51.488;7.232;2024-01-30T04:08:37;11.43;;;10.23;;
33491;SDS011;20010;51.488;7.232;2024-01-30T04:11:04;12.02;;;10.52;;
33491;SDS011;20010;51.488;7.232;2024-01-30T04:13:34;11.80;;;10.57;;
33491;SDS011;20010;51.488;7.232;2024-01-30T04:16:02;11.32;;;10.10;;
33491;SDS011;20010;51.488;7.232;2024-01-30T04:18:29;12.68;;;9.63;;
33491;SDS011;20010;51.488;7.232;2024-01-30T04:20:56;12.32;;;10.30;;
33491;SDS011;20010;51.488;7.232;2024-01-30T04:23:23;11.55;;;10.40;;
33491;SDS011;20010;51.488;7.232;2024-01-30T04:25:50;11.70;;;9.68;;
33491;SDS011;20010;51.488;7.232;2024-01-30T04:28:17;11.85;;;9.60;;
33491;SDS011;20010;51.488;7.232;2024-01-30T04:30:44;9.93;;;8.77;;
33491;SDS011;20010;51.488;7.232;2024-01-30T04:33:14;11.77;;;10.25;;
33491;SDS011;20010;51.488;7.232;2024-01-30T04:35:41;14.10;;;9.88;;
33491;SDS011;20010;51.488;7.232;2024-01-30T04:38:07;12.00;;;10.30;;
33491;SDS011;20010;51.488;7.232;2024-01-30T04:40:34;10.90;;;9.52;;
33491;SDS011;20010;51.488;7.232;2024-01-30T04:43:02;10.98;;;9.88;;
33491;SDS011;20010;51.488;7.232;2024-01-30T04:45:29;10.45;;;9.38;;
33491;SDS011;20010;51.488;7.232;2024-01-30T04:47:56;11.75;;;9.70;;
33491;SDS011;20010;51.488;7.232;2024-01-30T04:50:23;11.43;;;10.25;;
33491;SDS011;20010;51.488;7.232;2024-01-30T04:52:50;12.35;;;9.38;;
33491;SDS011;20010;51.488;7.232;2024-01-30T04:55:17;10.80;;;9.75;;
33491;SDS011;20010;51.488;7.232;2024-01-30T04:57:48;10.70;;;9.15;;
33491;SDS011;20010;51.488;7.232;2024-01-30T05:00:15;9.13;;;8.32;;
33491;SDS011;20010;51.488;7.232;2024-01-30T05:02:42;10.60;;;8.95;;
33491;SDS011;20010;51.488;7.232;2024-01-30T05:05:08;13.80;;;10.07;;
33491;SDS011;20010;51.488;7.232;2024-01-30T05:07:36;11.70;;;9.20;;
33491;SDS011;20010;51.488;7.232;2024-01-30T05:10:02;10.48;;;9.38;;
33491;SDS011;20010;51.488;7.232;2024-01-30T05:12:32;11.05;;;9.95;;
33491;SDS011;20010;51.488;7.232;2024-01-30T05:14:59;9.82;;;8.85;;
33491;SDS011;20010;51.488;7.232;2024-01-30T05:17:26;14.00;;;8.88;;
33491;SDS011;20010;51.488;7.232;2024-01-30T05:19:53;10.00;;;9.07;;
33491;SDS011;20010;51.488;7.232;2024-01-30T05:22:21;11.05;;;9.85;;
33491;SDS011;20010;51.488;7.232;2024-01-30T05:24:48;11.95;;;9.43;;
33491;SDS011;20010;51.488;7.232;2024-01-30T05:27:15;14.65;;;12.80;;
33491;SDS011;20010;51.488;7.232;2024-01-30T05:29:42;14.30;;;10.65;;
33491;SDS011;20010;51.488;7.232;2024-01-30T05:32:08;10.07;;;9.10;;
33491;SDS011;20010;51.488;7.232;2024-01-30T05:34:35;13.75;;;12.32;;
33491;SDS011;20010;51.488;7.232;2024-01-30T05:37:03;25.67;;;17.02;;
33491;SDS011;20010;51.488;7.232;2024-01-30T05:39:30;10.98;;;9.98;;
33491;SDS011;20010;51.488;7.232;2024-01-30T05:41:59;10.35;;;9.18;;
33491;SDS011;20010;51.488;7.232;2024-01-30T05:44:26;21.40;;;14.63;;
33491;SDS011;20010;51.488;7.232;2024-01-30T05:46:53;12.32;;;10.65;;
33491;SDS011;20010;51.488;7.232;2024-01-30T05:49:20;10.30;;;9.15;;
33491;SDS011;20010;51.488;7.232;2024-01-30T05:51:46;13.85;;;9.27;;
33491;SDS011;20010;51.488;7.232;2024-01-30T05:54:13;10.70;;;9.68;;
33491;SDS011;20010;51.488;7.232;2024-01-30T05:56:43;11.88;;;10.02;;
33491;SDS011;20010;51.488;7.232;2024-01-30T05:59:10;11.02;;;8.60;;
33491;SDS011;20010;51.488;7.232;2024-01-30T06:01:37;10.55;;;9.38;;
33491;SDS011;20010;51.488;7.232;2024-01-30T06:04:04;9.80;;;8.80;;
33491;SDS011;20010;51.488;7.232;2024-01-30T06:06:32;13.40;;;9.73;;
33491;SDS011;20010;51.488;7.232;2024-01-30T06:08:59;11.40;;;9.32;;
33491;SDS011;20010;51.488;7.232;2024-01-30T06:11:26;9.68;;;8.77;;
33491;SDS011;20010;51.488;7.232;2024-01-30T06:13:53;10.27;;;9.27;;
33491;SDS011;20010;51.488;7.232;2024-01-30T06:16:19;9.25;;;8.45;;
33491;SDS011;20010;51.488;7.232;2024-01-30T06:18:48;10.55;;;9.38;;
33491;SDS011;20010;51.488;7.232;2024-01-30T06:21:16;17.98;;;14.10;;
33491;SDS011;20010;51.488;7.232;2024-01-30T06:23:42;11.95;;;10.40;;
33491;SDS011;20010;51.488;7.232;2024-01-30T06:26:10;15.40;;;10.13;;
33491;SDS011;20010;51.488;7.232;2024-01-30T06:28:37;10.82;;;9.75;;
33491;SDS011;20010;51.488;7.232;2024-01-30T06:31:04;11.23;;;9.40;;
33491;SDS011;20010;51.488;7.232;2024-01-30T06:33:30;13.23;;;9.55;;
33491;SDS011;20010;51.488;7.232;2024-01-30T06:35:58;10.30;;;9.32;;
33491;SDS011;20010;51.488;7.232;2024-01-30T06:38:25;10.45;;;9.35;;
33491;SDS011;20010;51.488;7.232;2024-01-30T06:40:54;10.93;;;9.65;;
33491;SDS011;20010;51.488;7.232;2024-01-30T06:43:21;12.43;;;10.27;;
33491;SDS011;20010;51.488;7.232;2024-01-30T06:45:48;12.55;;;9.98;;
33491;SDS011;20010;51.488;7.232;2024-01-30T06:48:15;12.73;;;10.10;;
33491;SDS011;20010;51.488;7.232;2024-01-30T06:50:42;10.02;;;9.10;;
33491;SDS011;20010;51.488;7.232;2024-01-30T06:53:09;10.13;;;8.90;;
33491;SDS011;20010;51.488;7.232;2024-01-30T06:55:37;10.88;;;9.00;;
33491;SDS011;20010;51.488;7.232;2024-01-30T06:58:03;9.68;;;8.68;;
33491;SDS011;20010;51.488;7.232;2024-01-30T07:00:30;9.40;;;8.48;;
33491;SDS011;20010;51.488;7.232;2024-01-30T07:02:57;15.65;;;10.75;;
33491;SDS011;20010;51.488;7.232;2024-01-30T07:05:24;10.50;;;9.40;;
33491;SDS011;20010;51.488;7.232;2024-01-30T07:07:51;9.95;;;9.02;;
33491;SDS011;20010;51.488;7.232;2024-01-30T07:10:18;9.38;;;8.32;;
33491;SDS011;20010;51.488;7.232;2024-01-30T07:12:45;11.65;;;8.68;;
33491;SDS011;20010;51.488;7.232;2024-01-30T07:15:12;10.45;;;9.40;;
33491;SDS011;20010;51.488;7.232;2024-01-30T07:17:43;10.38;;;9.45;;
33491;SDS011;20010;51.488;7.232;2024-01-30T07:20:11;10.10;;;8.82;;
33491;SDS011;20010;51.488;7.232;2024-01-30T07:22:43;10.23;;;9.27;;
33491;SDS011;20010;51.488;7.232;2024-01-30T07:25:10;10.55;;;9.40;;
33491;SDS011;20010;51.488;7.232;2024-01-30T07:27:37;12.23;;;9.35;;
33491;SDS011;20010;51.488;7.232;2024-01-30T07:30:04;15.30;;;10.35;;
33491;SDS011;20010;51.488;7.232;2024-01-30T07:32:32;10.50;;;8.95;;
33491;SDS011;20010;51.488;7.232;2024-01-30T07:34:58;9.95;;;9.00;;
33491;SDS011;20010;51.488;7.232;2024-01-30T07:37:35;11.45;;;9.35;;
33491;SDS011;20010;51.488;7.232;2024-01-30T07:40:02;11.05;;;9.93;;
33491;SDS011;20010;51.488;7.232;2024-01-30T07:42:31;9.25;;;8.45;;
33491;SDS011;20010;51.488;7.232;2024-01-30T07:44:59;13.88;;;11.85;;
33491;SDS011;20010;51.488;7.232;2024-01-30T07:47:26;11.32;;;10.23;;
33491;SDS011;20010;51.488;7.232;2024-01-30T07:49:53;12.48;;;9.80;;
33491;SDS011;20010;51.488;7.232;2024-01-30T07:52:21;9.32;;;8.52;;
33491;SDS011;20010;51.488;7.232;2024-01-30T07:54:49;10.88;;;9.98;;
33491;SDS011;20010;51.488;7.232;2024-01-30T07:57:16;9.13;;;8.20;;
33491;SDS011;20010;51.488;7.232;2024-01-30T07:59:44;16.75;;;9.98;;
33491;SDS011;20010;51.488;7.232;2024-01-30T08:02:12;10.30;;;9.25;;
33491;SDS011;20010;51.488;7.232;2024-01-30T08:04:39;12.00;;;10.00;;
33491;SDS011;20010;51.488;7.232;2024-01-30T08:07:06;9.82;;;8.82;;
33491;SDS011;20010;51.488;7.232;2024-01-30T08:09:34;11.15;;;8.98;;
33491;SDS011;20010;51.488;7.232;2024-01-30T08:12:01;11.07;;;9.52;;
33491;SDS011;20010;51.488;7.232;2024-01-30T08:14:29;12.10;;;9.93;;
33491;SDS011;20010;51.488;7.232;2024-01-30T08:16:55;9.85;;;8.88;;
33491;SDS011;20010;51.488;7.232;2024-01-30T08:19:23;14.48;;;9.60;;
33491;SDS011;20010;51.488;7.232;2024-01-30T08:21:50;9.27;;;8.32;;
33491;SDS011;20010;51.488;7.232;2024-01-30T08:24:17;10.63;;;9.50;;
33491;SDS011;20010;51.488;7.232;2024-01-30T08:26:43;10.60;;;8.32;;
33491;SDS011;20010;51.488;7.232;2024-01-30T08:29:10;11.18;;;8.95;;
33491;SDS011;20010;51.488;7.232;2024-01-30T08:31:37;9.35;;;8.30;;
33491;SDS011;20010;51.488;7.232;2024-01-30T08:34:04;10.52;;;9.40;;
33491;SDS011;20010;51.488;7.232;2024-01-30T08:36:31;8.40;;;7.63;;
33491;SDS011;20010;51.488;7.232;2024-01-30T08:38:58;10.65;;;9.02;;
33491;SDS011;20010;51.488;7.232;2024-01-30T08:41:30;9.23;;;7.95;;
33491;SDS011;20010;51.488;7.232;2024-01-30T08:43:57;8.48;;;7.75;;
33491;SDS011;20010;51.488;7.232;2024-01-30T08:46:24;8.57;;;7.80;;
33491;SDS011;20010;51.488;7.232;2024-01-30T08:48:51;8.07;;;7.35;;
33491;SDS011;20010;51.488;7.232;2024-01-30T08:51:18;8.85;;;8.02;;
33491;SDS011;20010;51.488;7.232;2024-01-30T08:53:44;7.97;;;7.22;;
33491;SDS011;20010;51.488;7.232;2024-01-30T08:56:11;8.57;;;7.78;;
33491;SDS011;20010;51.488;7.232;2024-01-30T08:58:38;8.45;;;7.53;;
33491;SDS011;20010;51.488;7.232;2024-01-30T09:01:05;8.13;;;7.32;;
33491;SDS011;20010;51.488;7.232;2024-01-30T09:03:32;7.43;;;6.78;;
33491;SDS011;20010;51.488;7.232;2024-01-30T09:05:59;8.05;;;7.40;;
33491;SDS011;20010;51.488;7.232;2024-01-30T09:08:26;8.70;;;7.03;;
33491;SDS011;20010;51.488;7.232;2024-01-30T09:10:53;8.15;;;7.40;;
33491;SDS011;20010;51.488;7.232;2024-01-30T09:13:20;10.38;;;8.40;;
33491;SDS011;20010;51.488;7.232;2024-01-30T09:15:47;9.23;;;8.02;;
33491;SDS011;20010;51.488;7.232;2024-01-30T09:18:13;9.75;;;6.90;;
33491;SDS011;20010;51.488;7.232;2024-01-30T09:20:41;7.90;;;7.13;;
33491;SDS011;20010;51.488;7.232;2024-01-30T09:23:08;7.85;;;7.05;;
33491;SDS011;20010;51.488;7.232;2024-01-30T09:25:34;9.23;;;7.40;;
33491;SDS011;20010;51.488;7.232;2024-01-30T09:28:02;8.75;;;7.85;;
33491;SDS011;20010;51.488;7.232;2024-01-30T09:30:30;8.55;;;7.72;;
33491;SDS011;20010;51.488;7.232;2024-01-30T09:32:56;8.07;;;7.38;;
33491;SDS011;20010;51.488;7.232;2024-01-30T09:35:24;7.32;;;6.72;;
33491;SDS011;20010;51.488;7.232;2024-01-30T09:37:51;9.00;;;8.15;;
33491;SDS011;20010;51.488;7.232;2024-01-30T09:40:18;9.88;;;7.70;;
33491;SDS011;20010;51.488;7.232;2024-01-30T09:42:47;8.55;;;7.78;;
33491;SDS011;20010;51.488;7.232;2024-01-30T09:45:17;9.75;;;8.10;;
33491;SDS011;20010;51.488;7.232;2024-01-30T09:47:45;9.60;;;6.93;;
33491;SDS011;20010;51.488;7.232;2024-01-30T09:50:13;8.82;;;7.93;;
33491;SDS011;20010;51.488;7.232;2024-01-30T09:52:41;7.90;;;6.70;;
33491;SDS011;20010;51.488;7.232;2024-01-30T09:55:09;7.63;;;6.90;;
33491;SDS011;20010;51.488;7.232;2024-01-30T09:57:36;8.27;;;7.50;;
33491;SDS011;20010;51.488;7.232;2024-01-30T10:00:03;7.30;;;6.70;;
33491;SDS011;20010;51.488;7.232;2024-01-30T10:02:33;9.25;;;6.70;;
33491;SDS011;20010;51.488;7.232;2024-01-30T10:05:01;7.35;;;6.75;;
33491;SDS011;20010;51.488;7.232;2024-01-30T10:07:29;8.07;;;7.03;;
33491;SDS011;20010;51.488;7.232;2024-01-30T10:09:57;9.80;;;7.63;;
33491;SDS011;20010;51.488;7.232;2024-01-30T10:12:27;8.60;;;7.90;;
33491;SDS011;20010;51.488;7.232;2024-01-30T10:14:56;8.63;;;7.72;;
33491;SDS011;20010;51.488;7.232;2024-01-30T10:17:24;9.13;;;8.23;;
33491;SDS011;20010;51.488;7.232;2024-01-30T10:19:59;8.48;;;7.63;;
33491;SDS011;20010;51.488;7.232;2024-01-30T10:22:27;9.32;;;8.40;;
33491;SDS011;20010;51.488;7.232;2024-01-30T10:24:54;8.77;;;7.57;;
33491;SDS011;20010;51.488;7.232;2024-01-30T10:27:27;8.70;;;7.85;;
33491;SDS011;20010;51.488;7.232;2024-01-30T10:29:56;8.13;;;7.53;;
33491;SDS011;20010;51.488;7.232;2024-01-30T10:32:23;8.45;;;7.75;;
33491;SDS011;20010;51.488;7.232;2024-01-30T10:34:50;8.70;;;8.00;;
33491;SDS011;20010;51.488;7.232;2024-01-30T10:37:17;9.10;;;8.35;;
33491;SDS011;20010;51.488;7.232;2024-01-30T10:39:44;9.30;;;8.38;;
33491;SDS011;20010;51.488;7.232;2024-01-30T10:42:12;9.52;;;8.35;;
33491;SDS011;20010;51.488;7.232;2024-01-30T10:44:44;8.95;;;7.72;;
33491;SDS011;20010;51.488;7.232;2024-01-30T10:47:21;9.40;;;8.57;;
33491;SDS011;20010;51.488;7.232;2024-01-30T10:49:56;11.45;;;8.30;;
33491;SDS011;20010;51.488;7.232;2024-01-30T10:52:24;8.32;;;7.68;;
33491;SDS011;20010;51.488;7.232;2024-01-30T10:54:56;8.52;;;7.72;;
33491;SDS011;20010;51.488;7.232;2024-01-30T10:57:23;9.07;;;8.18;;
33491;SDS011;20010;51.488;7.232;2024-01-30T10:59:52;8.88;;;8.00;;
33491;SDS011;20010;51.488;7.232;2024-01-30T11:02:21;9.43;;;8.18;;
33491;SDS011;20010;51.488;7.232;2024-01-30T11:04:57;8.80;;;7.93;;
33491;SDS011;20010;51.488;7.232;2024-01-30T11:07:25;9.23;;;8.32;;
33491;SDS011;20010;51.488;7.232;2024-01-30T11:09:59;9.93;;;8.70;;
33491;SDS011;20010;51.488;7.232;2024-01-30T11:12:31;10.45;;;8.82;;
33491;SDS011;20010;51.488;7.232;2024-01-30T11:22:52;11.35;;;7.85;;
33491;SDS011;20010;51.488;7.232;2024-01-30T11:25:20;8.80;;;7.90;;
33491;SDS011;20010;51.488;7.232;2024-01-30T11:27:52;8.73;;;7.82;;
33491;SDS011;20010;51.488;7.232;2024-01-30T11:35:32;12.63;;;8.55;;
33491;SDS011;20010;51.488;7.232;2024-01-30T11:38:02;9.27;;;8.35;;
33491;SDS011;20010;51.488;7.232;2024-01-30T11:40:30;11.25;;;7.93;;
33491;SDS011;20010;51.488;7.232;2024-01-30T11:42:58;16.80;;;8.00;;
33491;SDS011;20010;51.488;7.232;2024-01-30T11:45:29;9.35;;;8.45;;
33491;SDS011;20010;51.488;7.232;2024-01-30T11:47:57;11.90;;;8.63;;
33491;SDS011;20010;51.488;7.232;2024-01-30T11:50:26;9.20;;;7.57;;
33491;SDS011;20010;51.488;7.232;2024-01-30T11:52:57;9.43;;;7.47;;
33491;SDS011;20010;51.488;7.232;2024-01-30T11:55:26;9.77;;;8.52;;
33491;SDS011;20010;51.488;7.232;2024-01-30T11:58:00;9.82;;;8.90;;
33491;SDS011;20010;51.488;7.232;2024-01-30T12:00:30;11.05;;;8.07;;
33491;SDS011;20010;51.488;7.232;2024-01-30T12:02:58;10.05;;;9.00;;
33491;SDS011;20010;51.488;7.232;2024-01-30T12:05:29;9.55;;;8.55;;
33491;SDS011;20010;51.488;7.232;2024-01-30T12:07:56;11.60;;;10.18;;
33491;SDS011;20010;51.488;7.232;2024-01-30T12:10:28;10.98;;;8.82;;
33491;SDS011;20010;51.488;7.232;2024-01-30T12:12:55;12.57;;;9.43;;
33491;SDS011;20010;51.488;7.232;2024-01-30T12:15:23;10.65;;;9.32;;
33491;SDS011;20010;51.488;7.232;2024-01-30T12:17:50;9.77;;;8.77;;
33491;SDS011;20010;51.488;7.232;2024-01-30T12:20:17;12.00;;;8.60;;
33491;SDS011;20010;51.488;7.232;2024-01-30T12:22:47;12.82;;;9.75;;
33491;SDS011;20010;51.488;7.232;2024-01-30T12:25:16;14.15;;;8.70;;
33491;SDS011;20010;51.488;7.232;2024-01-30T12:27:44;10.25;;;9.25;;
33491;SDS011;20010;51.488;7.232;2024-01-30T12:30:13;13.32;;;9.27;;
33491;SDS011;20010;51.488;7.232;2024-01-30T12:32:42;10.30;;;8.93;;
33491;SDS011;20010;51.488;7.232;2024-01-30T12:35:14;9.65;;;8.45;;
33491;SDS011;20010;51.488;7.232;2024-01-30T12:37:45;13.45;;;9.15;;
33491;SDS011;20010;51.488;7.232;2024-01-30T12:40:13;10.13;;;8.70;;
33491;SDS011;20010;51.488;7.232;2024-01-30T12:42:42;10.43;;;9.10;;
33491;SDS011;20010;51.488;7.232;2024-01-30T12:45:10;13.60;;;9.48;;
33491;SDS011;20010;51.488;7.232;2024-01-30T12:47:37;12.00;;;9.07;;
33491;SDS011;20010;51.488;7.232;2024-01-30T12:50:06;11.20;;;8.43;;
33491;SDS011;20010;51.488;7.232;2024-01-30T12:52:33;10.00;;;8.88;;
33491;SDS011;20010;51.488;7.232;2024-01-30T12:55:00;15.95;;;8.95;;
33491;SDS011;20010;51.488;7.232;2024-01-30T12:57:27;12.40;;;9.30;;
33491;SDS011;20010;51.488;7.232;2024-01-30T12:59:53;12.15;;;9.65;;
33491;SDS011;20010;51.488;7.232;2024-01-30T13:02:20;10.25;;;9.32;;
33491;SDS011;20010;51.488;7.232;2024-01-30T13:04:49;12.68;;;9.05;;
33491;SDS011;20010;51.488;7.232;2024-01-30T13:07:17;13.10;;;9.25;;
33491;SDS011;20010;51.488;7.232;2024-01-30T13:09:44;10.15;;;9.15;;
33491;SDS011;20010;51.488;7.232;2024-01-30T13:12:11;14.10;;;9.48;;
33491;SDS011;20010;51.488;7.232;2024-01-30T13:14:39;10.93;;;9.20;;
33491;SDS011;20010;51.488;7.232;2024-01-30T13:17:05;13.68;;;10.07;;
33491;SDS011;20010;51.488;7.232;2024-01-30T13:19:32;10.40;;;9.43;;
33491;SDS011;20010;51.488;7.232;2024-01-30T13:21:59;10.38;;;9.07;;
33491;SDS011;20010;51.488;7.232;2024-01-30T13:24:28;14.23;;;9.77;;
33491;SDS011;20010;51.488;7.232;2024-01-30T13:26:55;12.63;;;9.63;;
33491;SDS011;20010;51.488;7.232;2024-01-30T13:29:21;15.90;;;9.20;;
33491;SDS011;20010;51.488;7.232;2024-01-30T13:31:48;11.52;;;9.90;;
33491;SDS011;20010;51.488;7.232;2024-01-30T13:34:15;11.15;;;10.02;;
33491;SDS011;20010;51.488;7.232;2024-01-30T13:36:42;16.27;;;10.25;;
33491;SDS011;20010;51.488;7.232;2024-01-30T13:39:09;14.80;;;10.20;;
33491;SDS011;20010;51.488;7.232;2024-01-30T13:41:37;19.15;;;9.75;;
33491;SDS011;20010;51.488;7.232;2024-01-30T13:44:04;13.27;;;10.35;;
33491;SDS011;20010;51.488;7.232;2024-01-30T13:46:31;11.13;;;9.57;;
33491;SDS011;20010;51.488;7.232;2024-01-30T13:48:58;15.52;;;10.80;;
33491;SDS011;20010;51.488;7.232;2024-01-30T13:51:25;17.58;;;10.52;;
33491;SDS011;20010;51.488;7.232;2024-01-30T13:53:53;15.95;;;9.20;;
33491;SDS011;20010;51.488;7.232;2024-01-30T13:56:20;13.90;;;9.95;;
33491;SDS011;20010;51.488;7.232;2024-01-30T13:58:50;14.48;;;10.13;;
33491;SDS011;20010;51.488;7.232;2024-01-30T14:01:17;14.20;;;10.60;;
33491;SDS011;20010;51.488;7.232;2024-01-30T14:03:44;11.32;;;9.60;;
33491;SDS011;20010;51.488;7.232;2024-01-30T14:06:11;14.70;;;9.77;;
33491;SDS011;20010;51.488;7.232;2024-01-30T14:08:40;11.55;;;10.35;;
33491;SDS011;20010;51.488;7.232;2024-01-30T14:11:11;10.40;;;9.32;;
33491;SDS011;20010;51.488;7.232;2024-01-30T14:13:38;10.88;;;9.88;;
33491;SDS011;20010;51.488;7.232;2024-01-30T14:16:05;13.05;;;10.35;;
33491;SDS011;20010;51.488;7.232;2024-01-30T14:18:33;11.57;;;9.15;;
33491;SDS011;20010;51.488;7.232;2024-01-30T14:21:01;11.38;;;10.20;;
33491;SDS011;20010;51.488;7.232;2024-01-30T14:23:28;10.25;;;9.15;;
33491;SDS011;20010;51.488;7.232;2024-01-30T14:25:55;11.60;;;9.25;;
33491;SDS011;20010;51.488;7.232;2024-01-30T14:28:21;13.70;;;10.30;;
33491;SDS011;20010;51.488;7.232;2024-01-30T14:30:48;14.50;;;10.27;;
33491;SDS011;20010;51.488;7.232;2024-01-30T14:33:15;10.38;;;9.38;;
33491;SDS011;20010;51.488;7.232;2024-01-30T14:35:42;10.57;;;9.52;;
33491;SDS011;20010;51.488;7.232;2024-01-30T14:38:10;11.77;;;10.35;;
33491;SDS011;20010;51.488;7.232;2024-01-30T14:40:37;13.00;;;10.10;;
33491;SDS011;20010;51.488;7.232;2024-01-30T14:43:04;15.77;;;10.20;;
33491;SDS011;20010;51.488;7.232;2024-01-30T14:45:32;13.65;;;10.05;;
33491;SDS011;20010;51.488;7.232;2024-01-30T14:47:59;15.52;;;9.82;;